createdAt,value
2017-09-25T00:01:45.191Z,12.80
2017-09-25T00:04:15.937Z,12.80
2017-09-25T00:06:45.347Z,12.80
2017-09-25T00:09:12.855Z,12.80
2017-09-25T00:11:40.356Z,12.80
2017-09-25T00:14:15.040Z,12.70
2017-09-25T00:16:45.904Z,12.70
2017-09-25T00:19:13.484Z,12.60
2017-09-25T00:21:40.980Z,12.60
2017-09-25T00:24:15.060Z,12.50
2017-09-25T00:26:42.711Z,12.50
2017-09-25T00:29:10.226Z,12.40
2017-09-25T00:31:37.743Z,12.40
2017-09-25T00:34:05.257Z,12.30
2017-09-25T00:36:32.871Z,12.30
2017-09-25T00:39:06.267Z,12.30
2017-09-25T00:41:34.555Z,12.30
2017-09-25T00:44:02.826Z,12.30
2017-09-25T00:46:31.082Z,12.20
2017-09-25T00:49:05.159Z,12.20
2017-09-25T00:51:32.662Z,12.20
2017-09-25T00:54:06.375Z,12.20
2017-09-25T00:56:45.317Z,12.20
2017-09-25T00:59:33.695Z,12.10
2017-09-25T01:02:13.026Z,12.10
2017-09-25T01:05:05.227Z,12.10
2017-09-25T01:07:33.519Z,12.10
2017-09-25T01:10:01.020Z,12.00
2017-09-25T01:12:28.523Z,12.10
2017-09-25T01:15:05.294Z,12.00
2017-09-25T01:17:34.975Z,12.10
2017-09-25T01:20:06.163Z,12.00
2017-09-25T01:22:34.508Z,12.00
2017-09-25T01:25:05.025Z,12.00
2017-09-25T01:27:35.865Z,12.00
2017-09-25T01:30:03.432Z,12.00
2017-09-25T01:32:31.226Z,12.00
2017-09-25T01:35:06.106Z,12.10
2017-09-25T01:37:33.918Z,12.00
2017-09-25T01:40:02.189Z,12.10
2017-09-25T01:42:37.386Z,12.00
2017-09-25T01:45:14.971Z,12.00
2017-09-25T01:47:46.295Z,12.00
2017-09-25T01:50:14.707Z,12.10
2017-09-25T01:52:42.203Z,12.00
2017-09-25T01:55:09.806Z,12.00
2017-09-25T01:57:44.487Z,12.00
2017-09-25T02:00:15.638Z,12.00
2017-09-25T02:02:43.146Z,12.00
2017-09-25T02:05:11.092Z,11.90
2017-09-25T02:07:39.472Z,11.80
2017-09-25T02:10:14.403Z,11.70
2017-09-25T02:12:42.650Z,11.70
2017-09-25T02:15:10.918Z,11.70
2017-09-25T02:17:39.271Z,11.60
2017-09-25T02:20:06.770Z,11.60
2017-09-25T02:22:44.723Z,11.60
2017-09-25T02:25:15.642Z,11.50
2017-09-25T02:27:46.772Z,11.50
2017-09-25T02:30:15.068Z,11.40
2017-09-25T02:32:45.667Z,11.40
2017-09-25T02:35:15.376Z,11.40
2017-09-25T02:37:45.075Z,11.40
2017-09-25T02:40:12.852Z,11.30
2017-09-25T02:42:44.549Z,11.30
2017-09-25T02:45:12.055Z,11.30
2017-09-25T02:47:45.671Z,11.30
2017-09-25T02:50:13.930Z,11.30
2017-09-25T02:52:41.978Z,11.30
2017-09-25T02:55:09.475Z,11.30
2017-09-25T02:57:37.754Z,11.30
2017-09-25T03:00:14.571Z,11.30
2017-09-25T03:02:42.068Z,11.20
2017-09-25T03:05:09.852Z,11.30
2017-09-25T03:07:44.228Z,11.20
2017-09-25T03:10:12.051Z,11.20
2017-09-25T03:12:40.307Z,11.10
2017-09-25T03:15:08.566Z,11.00
2017-09-25T03:17:44.210Z,10.90
2017-09-25T03:20:15.134Z,10.90
2017-09-25T03:22:46.249Z,10.80
2017-09-25T03:25:15.069Z,10.80
2017-09-25T03:27:42.571Z,10.70
2017-09-25T03:30:14.720Z,10.60
2017-09-25T03:32:45.267Z,10.50
2017-09-25T03:35:14.878Z,10.60
2017-09-25T03:37:43.150Z,10.60
2017-09-25T03:40:11.737Z,10.60
2017-09-25T03:42:40.002Z,10.60
2017-09-25T03:45:14.521Z,10.50
2017-09-25T03:47:42.021Z,10.60
2017-09-25T03:50:16.400Z,10.60
2017-09-25T03:52:44.665Z,10.50
2017-09-25T03:55:15.682Z,10.40
2017-09-25T03:57:46.201Z,10.50
2017-09-25T04:00:13.763Z,10.50
2017-09-25T04:02:41.590Z,10.40
2017-09-25T04:05:09.841Z,10.40
2017-09-25T04:07:37.327Z,10.30
2017-09-25T04:10:15.987Z,10.30
2017-09-25T04:12:43.492Z,10.30
2017-09-25T04:15:15.782Z,10.20
2017-09-25T04:17:45.115Z,10.20
2017-09-25T04:20:12.602Z,10.30
2017-09-25T04:22:45.897Z,10.20
2017-09-25T04:25:13.400Z,10.20
2017-09-25T04:27:40.915Z,10.20
2017-09-25T04:30:08.415Z,10.20
2017-09-25T04:32:37.077Z,10.10
2017-09-25T04:35:15.525Z,10.00
2017-09-25T04:37:43.383Z,10.00
2017-09-25T04:40:14.595Z,10.00
2017-09-25T04:42:45.655Z,10.00
2017-09-25T04:45:14.907Z,9.90
2017-09-25T04:47:45.880Z,9.80
2017-09-25T04:50:14.471Z,9.80
2017-09-25T04:52:41.951Z,9.80
2017-09-25T04:55:15.591Z,9.70
2017-09-25T04:57:46.454Z,9.70
2017-09-25T05:00:14.975Z,9.70
2017-09-25T05:02:45.488Z,9.70
2017-09-25T05:05:15.408Z,9.80
2017-09-25T05:07:44.500Z,9.80
2017-09-25T05:10:16.482Z,9.70
2017-09-25T05:12:43.963Z,9.70
2017-09-25T05:15:11.458Z,9.80
2017-09-25T05:17:44.995Z,9.80
2017-09-25T05:20:12.489Z,9.80
2017-09-25T05:22:39.985Z,9.80
2017-09-25T05:25:14.947Z,9.80
2017-09-25T05:27:42.454Z,9.80
2017-09-25T05:30:16.141Z,9.80
2017-09-25T05:32:45.064Z,9.80
2017-09-25T05:35:13.323Z,9.80
2017-09-25T05:37:47.322Z,9.80
2017-09-25T05:40:24.735Z,9.90
2017-09-25T05:42:52.519Z,9.90
2017-09-25T05:45:26.862Z,9.90
2017-09-25T05:47:54.707Z,9.90
2017-09-25T05:50:25.909Z,9.90
2017-09-25T05:52:54.942Z,9.90
2017-09-25T05:55:26.323Z,10.00
2017-09-25T05:57:53.873Z,9.90
2017-09-25T06:00:25.866Z,10.10
2017-09-25T06:02:53.383Z,10.00
2017-09-25T06:05:25.188Z,10.10
2017-09-25T06:07:52.860Z,10.00
2017-09-25T06:10:20.671Z,10.10
2017-09-25T06:12:49.094Z,10.10
2017-09-25T06:15:24.736Z,10.00
2017-09-25T06:17:55.282Z,10.10
2017-09-25T06:20:22.781Z,10.10
2017-09-25T06:22:51.063Z,10.10
2017-09-25T06:25:19.320Z,10.20
2017-09-25T06:27:47.924Z,10.30
2017-09-25T06:30:24.421Z,10.30
2017-09-25T06:32:52.263Z,10.30
2017-09-25T06:35:26.679Z,10.60
2017-09-25T06:37:55.270Z,10.70
2017-09-25T06:40:23.518Z,10.80
2017-09-25T06:42:51.793Z,10.90
2017-09-25T06:45:20.082Z,10.90
2017-09-25T06:47:48.353Z,10.90
2017-09-25T06:50:16.961Z,11.00
2017-09-25T06:52:55.079Z,11.00
2017-09-25T06:55:22.918Z,11.00
2017-09-25T06:57:57.142Z,11.10
2017-09-25T07:00:25.732Z,11.10
2017-09-25T07:02:54.842Z,11.20
2017-09-25T07:05:25.774Z,11.10
2017-09-25T07:07:53.279Z,11.40
2017-09-25T07:10:20.772Z,11.70
2017-09-25T07:12:49.035Z,12.90
2017-09-25T07:15:24.751Z,13.60
2017-09-25T07:17:52.267Z,13.60
2017-09-25T07:20:26.060Z,14.30
2017-09-25T07:22:54.382Z,15.50
2017-09-25T07:25:21.871Z,15.40
2017-09-25T07:27:49.877Z,16.00
2017-09-25T07:30:18.159Z,16.90
2017-09-25T07:32:45.647Z,16.90
2017-09-25T07:35:13.147Z,17.50
2017-09-25T07:37:40.723Z,18.00
2017-09-25T07:40:08.991Z,19.00
2017-09-25T07:42:36.475Z,18.90
2017-09-25T07:45:05.266Z,19.80
2017-09-25T07:47:32.883Z,19.70
2017-09-25T07:50:00.371Z,20.20
2017-09-25T07:52:35.133Z,20.80
2017-09-25T07:55:02.648Z,20.80
2017-09-25T07:57:30.918Z,21.60
2017-09-25T07:59:59.196Z,22.20
2017-09-25T08:02:34.810Z,22.10
2017-09-25T08:05:02.308Z,22.50
2017-09-25T08:07:30.173Z,22.80
2017-09-25T08:10:05.017Z,23.40
2017-09-25T08:12:33.602Z,23.70
2017-09-25T08:15:05.020Z,24.00
2017-09-25T08:17:33.439Z,23.90
2017-09-25T08:20:05.253Z,24.70
2017-09-25T08:22:33.883Z,25.10
2017-09-25T08:25:05.832Z,25.20
2017-09-25T08:27:35.554Z,25.50
2017-09-25T08:30:04.831Z,25.70
2017-09-25T08:32:32.689Z,25.60
2017-09-25T08:35:00.666Z,25.80
2017-09-25T08:37:34.435Z,25.80
2017-09-25T08:40:05.557Z,25.70
2017-09-25T08:42:36.332Z,25.90
2017-09-25T08:45:03.836Z,26.10
2017-09-25T08:47:31.347Z,26.30
2017-09-25T08:49:59.927Z,26.70
2017-09-25T08:52:34.526Z,27.00
2017-09-25T08:55:02.390Z,27.00
2017-09-25T08:57:35.763Z,27.40
2017-09-25T09:00:05.033Z,27.30
2017-09-25T09:02:36.407Z,26.80
2017-09-25T09:05:05.489Z,26.70
2017-09-25T09:07:32.995Z,26.70
2017-09-25T09:10:00.571Z,27.00
2017-09-25T09:12:35.382Z,27.70
2017-09-25T09:15:06.294Z,27.60
2017-09-25T09:17:35.260Z,28.00
2017-09-25T09:20:05.835Z,28.00
2017-09-25T09:22:34.896Z,27.90
2017-09-25T09:25:05.520Z,28.10
2017-09-25T09:27:36.756Z,28.50
2017-09-25T09:30:04.998Z,28.50
2017-09-25T09:32:32.504Z,28.40
2017-09-25T09:35:00.043Z,28.20
2017-09-25T09:37:28.314Z,28.40
2017-09-25T09:40:04.537Z,28.90
2017-09-25T09:42:35.635Z,28.80
2017-09-25T09:45:03.495Z,29.10
2017-09-25T09:47:31.822Z,29.20
2017-09-25T09:49:59.319Z,29.10
2017-09-25T09:52:34.859Z,29.80
2017-09-25T09:55:02.351Z,29.70
2017-09-25T09:57:29.853Z,30.30
2017-09-25T10:00:04.639Z,30.20
2017-09-25T10:02:35.742Z,30.00
2017-09-25T10:05:06.145Z,30.50
2017-09-25T10:07:34.282Z,31.00
2017-09-25T10:10:01.782Z,31.50
2017-09-25T10:12:29.259Z,32.00
2017-09-25T10:15:04.184Z,31.70
2017-09-25T10:17:31.699Z,31.50
2017-09-25T10:19:59.869Z,31.50
2017-09-25T10:22:27.574Z,31.60
2017-09-25T10:24:55.177Z,31.90
2017-09-25T10:27:23.518Z,31.60
2017-09-25T10:29:51.023Z,31.50
2017-09-25T10:32:24.203Z,31.40
2017-09-25T10:34:51.745Z,31.80
2017-09-25T10:37:26.862Z,32.60
2017-09-25T10:39:55.356Z,32.60
2017-09-25T10:42:22.845Z,33.10
2017-09-25T10:44:50.450Z,32.60
2017-09-25T10:47:17.935Z,31.90
2017-09-25T10:49:45.451Z,31.50
2017-09-25T10:52:14.566Z,31.60
2017-09-25T10:54:42.067Z,31.60
2017-09-25T10:57:16.710Z,31.70
2017-09-25T10:59:44.554Z,31.60
2017-09-25T11:02:16.413Z,31.90
2017-09-25T11:04:45.107Z,31.80
2017-09-25T11:07:13.396Z,32.10
2017-09-25T11:09:41.767Z,32.00
2017-09-25T11:12:15.565Z,32.40
2017-09-25T11:14:43.842Z,33.00
2017-09-25T11:17:12.213Z,33.40
2017-09-25T11:19:40.491Z,33.80
2017-09-25T11:22:09.185Z,34.00
2017-09-25T11:24:37.451Z,33.90
2017-09-25T11:27:15.709Z,33.80
2017-09-25T11:29:46.372Z,33.50
2017-09-25T11:32:25.088Z,32.00
2017-09-25T11:34:52.637Z,31.90
2017-09-25T11:37:20.589Z,31.90
2017-09-25T11:39:54.791Z,31.90
2017-09-25T11:42:25.862Z,31.60
2017-09-25T11:44:54.945Z,31.00
2017-09-25T11:47:26.303Z,29.90
2017-09-25T11:49:53.836Z,29.60
2017-09-25T11:52:21.348Z,30.20
2017-09-25T11:54:48.875Z,31.20
2017-09-25T11:57:26.058Z,32.00
2017-09-25T11:59:55.188Z,31.60
2017-09-25T12:02:22.713Z,31.20
2017-09-25T12:04:56.720Z,30.60
2017-09-25T12:07:25.683Z,29.70
2017-09-25T12:09:53.944Z,27.30
2017-09-25T12:12:26.149Z,26.30
2017-09-25T12:14:55.169Z,26.20
2017-09-25T12:17:22.673Z,25.50
2017-09-25T12:19:50.958Z,24.70
2017-09-25T12:22:19.289Z,24.60
2017-09-25T12:24:54.667Z,24.30
2017-09-25T12:27:24.666Z,24.10
2017-09-25T12:29:55.457Z,24.00
2017-09-25T12:32:22.955Z,23.80
2017-09-25T12:34:50.531Z,23.50
2017-09-25T12:37:25.114Z,23.20
2017-09-25T12:39:53.435Z,23.20
2017-09-25T12:42:21.744Z,23.10
2017-09-25T12:44:49.270Z,23.10
2017-09-25T12:47:17.556Z,23.10
2017-09-25T12:49:54.272Z,23.10
2017-09-25T12:52:22.066Z,23.00
2017-09-25T12:54:49.686Z,23.20
2017-09-25T12:57:24.734Z,23.20
2017-09-25T12:59:52.223Z,23.10
2017-09-25T13:02:19.942Z,23.00
2017-09-25T13:04:54.698Z,22.80
2017-09-25T13:07:22.198Z,22.60
2017-09-25T13:09:50.544Z,22.30
2017-09-25T13:12:18.027Z,22.30
2017-09-25T13:14:46.143Z,22.30
2017-09-25T13:17:14.977Z,22.30
2017-09-25T13:19:42.575Z,22.30
2017-09-25T13:22:17.021Z,22.50
2017-09-25T13:24:44.539Z,22.40
2017-09-25T13:27:13.233Z,22.30
2017-09-25T13:29:41.499Z,22.20
2017-09-25T13:32:09.839Z,22.10
2017-09-25T13:34:44.971Z,22.10
2017-09-25T13:37:12.740Z,22.10
2017-09-25T13:39:46.457Z,22.00
2017-09-25T13:42:15.091Z,21.90
2017-09-25T13:44:42.613Z,21.90
2017-09-25T13:47:16.058Z,21.90
2017-09-25T13:49:44.871Z,21.90
2017-09-25T13:52:16.448Z,21.80
2017-09-25T13:54:43.930Z,21.70
2017-09-25T13:57:12.191Z,21.50
2017-09-25T14:04:45.791Z,21.30
2017-09-25T14:07:15.250Z,21.20
2017-09-25T14:09:44.816Z,21.10
2017-09-25T14:12:15.902Z,21.00
2017-09-25T14:14:44.147Z,21.10
2017-09-25T14:17:11.631Z,21.00
2017-09-25T14:19:46.148Z,21.10
2017-09-25T14:22:13.619Z,21.10
2017-09-25T14:24:44.794Z,21.40
2017-09-25T14:27:12.283Z,21.60
2017-09-25T14:29:46.085Z,21.60
2017-09-25T14:32:14.340Z,21.60
2017-09-25T14:34:41.821Z,21.60
2017-09-25T14:37:15.703Z,21.60
2017-09-25T14:39:43.190Z,21.50
2017-09-25T14:42:16.834Z,21.40
2017-09-25T14:44:44.319Z,21.30
2017-09-25T14:47:15.534Z,21.20
2017-09-25T14:49:43.049Z,21.10
2017-09-25T14:52:17.442Z,21.00
2017-09-25T14:54:54.615Z,20.90
2017-09-25T14:57:25.839Z,20.80
2017-09-25T14:59:55.027Z,20.60
2017-09-25T15:02:24.586Z,20.50
2017-09-25T15:04:52.083Z,20.50
2017-09-25T15:07:25.591Z,20.50
2017-09-25T15:09:54.191Z,20.30
2017-09-25T15:12:25.498Z,20.30
2017-09-25T15:14:56.778Z,20.20
2017-09-25T15:17:34.919Z,20.10
2017-09-25T15:20:02.723Z,20.10
2017-09-25T15:22:36.652Z,20.10
2017-09-25T15:25:04.471Z,20.10
2017-09-25T15:27:35.192Z,20.10
2017-09-25T15:30:06.271Z,20.10
2017-09-25T15:32:34.634Z,19.90
2017-09-25T15:35:02.507Z,19.80
2017-09-25T15:37:30.778Z,19.70
2017-09-25T15:39:58.285Z,19.60
2017-09-25T15:42:34.133Z,19.50
2017-09-25T15:45:05.133Z,19.60
2017-09-25T15:47:32.626Z,19.50
2017-09-25T15:50:05.967Z,19.50
2017-09-25T15:52:33.734Z,19.50
2017-09-25T15:55:01.218Z,19.40
2017-09-25T15:57:29.482Z,19.30
2017-09-25T15:59:56.979Z,19.30
2017-09-25T16:02:24.525Z,19.30
2017-09-25T16:04:52.789Z,19.20
2017-09-25T16:07:21.038Z,19.10
2017-09-25T16:09:48.842Z,19.10
2017-09-25T16:12:16.331Z,19.10
2017-09-25T16:14:44.966Z,19.10
2017-09-25T16:17:14.778Z,19.00
2017-09-25T16:19:44.659Z,19.00
2017-09-25T16:22:12.432Z,18.90
2017-09-25T16:24:39.934Z,18.90
2017-09-25T16:27:08.190Z,18.80
2017-09-25T16:29:35.679Z,18.70
2017-09-25T16:32:04.690Z,18.70
2017-09-25T16:34:35.707Z,18.70
2017-09-25T16:37:03.215Z,18.60
2017-09-25T16:39:36.767Z,18.60
2017-09-25T16:42:04.496Z,18.50
2017-09-25T16:44:35.234Z,18.40
2017-09-25T16:47:06.354Z,18.40
2017-09-25T16:49:34.708Z,18.30
2017-09-25T16:52:02.211Z,18.20
2017-09-25T16:54:30.498Z,18.10
2017-09-25T16:56:59.052Z,18.00
2017-09-25T16:59:26.535Z,17.90
2017-09-25T17:01:54.043Z,17.90
2017-09-25T17:04:21.542Z,17.90
2017-09-25T17:06:49.035Z,17.80
2017-09-25T17:09:17.287Z,17.70
2017-09-25T17:11:45.536Z,17.60
2017-09-25T17:14:13.026Z,17.50
2017-09-25T17:16:41.347Z,17.50
2017-09-25T17:19:15.213Z,17.40
2017-09-25T17:21:45.207Z,17.40
2017-09-25T17:24:12.711Z,17.30
2017-09-25T17:26:47.633Z,17.30
2017-09-25T17:29:16.776Z,17.20
2017-09-25T17:31:44.871Z,17.10
2017-09-25T17:34:16.178Z,17.10
2017-09-25T17:36:43.842Z,17.00
2017-09-25T17:39:14.812Z,17.00
2017-09-25T17:41:42.299Z,16.90
2017-09-25T17:44:10.577Z,16.80
2017-09-25T17:46:45.243Z,16.80
2017-09-25T17:49:13.067Z,16.80
2017-09-25T17:51:44.801Z,16.70
2017-09-25T17:54:16.091Z,16.70
2017-09-25T17:56:45.179Z,16.70
2017-09-25T17:59:14.979Z,16.60
2017-09-25T18:01:44.006Z,16.50
2017-09-25T18:04:14.526Z,16.50
2017-09-25T18:06:45.270Z,16.60
2017-09-25T18:09:16.003Z,16.50
2017-09-25T18:11:47.955Z,16.50
2017-09-25T18:14:15.509Z,16.40
2017-09-25T18:16:46.166Z,16.40
2017-09-25T18:19:14.782Z,16.40
2017-09-25T18:21:45.523Z,16.30
2017-09-25T18:24:13.012Z,16.20
2017-09-25T18:26:44.821Z,16.10
2017-09-25T18:29:13.371Z,16.10
2017-09-25T18:31:40.855Z,16.00
2017-09-25T18:34:15.456Z,16.10
2017-09-25T18:36:42.944Z,16.00
2017-09-25T18:39:10.427Z,16.00
2017-09-25T18:41:37.926Z,15.90
2017-09-25T18:44:05.414Z,15.90
2017-09-25T18:46:33.174Z,15.90
2017-09-25T18:49:00.673Z,15.80
2017-09-25T18:51:34.590Z,15.80
2017-09-25T18:54:02.843Z,15.70
2017-09-25T18:56:30.340Z,15.60
2017-09-25T18:59:04.885Z,15.70
2017-09-25T19:01:32.373Z,15.60
2017-09-25T19:04:00.124Z,15.60
2017-09-25T19:06:34.183Z,15.60
2017-09-25T19:09:01.964Z,15.50
2017-09-25T19:11:35.974Z,15.50
2017-09-25T19:14:04.556Z,15.40
2017-09-25T19:16:32.820Z,15.40
2017-09-25T19:19:01.071Z,15.40
2017-09-25T19:21:28.582Z,15.30
2017-09-25T19:24:04.419Z,15.30
2017-09-25T19:26:36.597Z,15.30
2017-09-25T19:29:14.592Z,15.30
2017-09-25T19:31:46.763Z,15.30
2017-09-25T19:34:24.800Z,15.20
2017-09-25T19:36:56.527Z,15.10
2017-09-25T19:39:24.787Z,15.20
2017-09-25T19:41:53.039Z,15.20
2017-09-25T19:44:20.565Z,15.10
2017-09-25T19:46:54.424Z,15.20
2017-09-25T19:49:26.576Z,15.20
2017-09-25T19:51:54.073Z,15.20
2017-09-25T19:54:23.935Z,15.10
2017-09-25T19:56:52.664Z,15.10
2017-09-25T19:59:21.253Z,15.10
2017-09-25T20:01:55.984Z,15.10
2017-09-25T20:04:24.246Z,15.00
2017-09-25T20:06:52.507Z,15.00
2017-09-25T20:09:20.006Z,14.90
2017-09-25T20:11:54.351Z,14.90
2017-09-25T20:14:40.790Z,14.90
2017-09-25T20:17:09.686Z,14.80
2017-09-25T20:19:45.181Z,14.70
2017-09-25T20:22:12.668Z,14.70
2017-09-25T20:24:40.147Z,14.60
2017-09-25T20:27:15.037Z,14.60
2017-09-25T20:29:42.528Z,14.60
2017-09-25T20:32:10.015Z,14.50
2017-09-25T20:34:45.088Z,14.40
2017-09-25T20:37:12.586Z,14.30
2017-09-25T20:39:40.066Z,14.30
2017-09-25T20:42:28.040Z,14.20
2017-09-25T20:44:55.543Z,14.10
2017-09-25T20:47:23.057Z,14.10
2017-09-25T20:49:56.911Z,14.00
2017-09-25T20:52:25.135Z,14.00
2017-09-25T20:54:56.340Z,13.90
2017-09-25T20:57:24.973Z,13.90
2017-09-25T20:59:52.454Z,13.80
2017-09-25T21:02:20.712Z,13.80
2017-09-25T21:04:55.130Z,13.80
2017-09-25T21:07:22.611Z,13.80
2017-09-25T21:09:56.550Z,13.80
2017-09-25T21:12:35.121Z,13.70
2017-09-25T21:15:02.649Z,13.70
2017-09-25T21:17:30.155Z,13.70
2017-09-25T21:20:05.146Z,13.70
2017-09-25T21:22:32.639Z,13.70
2017-09-25T21:25:00.129Z,13.60
2017-09-25T21:27:28.195Z,13.60
2017-09-25T21:29:55.674Z,13.50
2017-09-25T21:32:24.263Z,13.50
2017-09-25T21:34:52.517Z,13.40
2017-09-25T21:37:27.086Z,13.40
2017-09-25T21:39:55.174Z,13.40
2017-09-25T21:42:22.651Z,13.40
2017-09-25T21:44:50.147Z,13.40
2017-09-25T21:47:18.408Z,13.30
2017-09-25T21:49:54.588Z,13.30
2017-09-25T21:52:22.839Z,13.20
2017-09-25T21:54:50.345Z,13.10
2017-09-25T21:57:17.835Z,13.10
2017-09-25T21:59:55.272Z,13.10
2017-09-25T22:02:25.234Z,13.00
2017-09-25T22:04:52.731Z,13.00
2017-09-25T22:07:20.983Z,13.00
2017-09-25T22:09:48.752Z,12.90
2017-09-25T22:12:25.955Z,13.00
2017-09-25T22:14:55.175Z,12.90
2017-09-25T22:17:22.662Z,12.90
2017-09-25T22:19:50.147Z,12.90
2017-09-25T22:22:24.462Z,12.90
2017-09-25T22:24:55.487Z,12.90
2017-09-25T22:27:22.986Z,12.80
2017-09-25T22:29:50.465Z,12.80
2017-09-25T22:32:19.057Z,12.80
2017-09-25T22:34:46.543Z,12.70
2017-09-25T22:37:14.844Z,12.80
2017-09-25T22:39:42.344Z,12.80
2017-09-25T22:42:16.410Z,12.80
2017-09-25T22:44:43.915Z,12.80
2017-09-25T22:47:12.159Z,12.70
2017-09-25T22:49:39.656Z,12.60
2017-09-25T22:52:07.900Z,12.60
2017-09-25T22:54:46.019Z,12.50
2017-09-25T22:57:14.283Z,12.50
2017-09-25T22:59:41.755Z,12.40
2017-09-25T23:02:10.015Z,12.40
2017-09-25T23:04:49.979Z,12.40
2017-09-25T23:07:18.238Z,12.40
2017-09-25T23:09:56.200Z,12.30
2017-09-25T23:12:24.036Z,12.30
2017-09-25T23:14:54.951Z,12.30
2017-09-25T23:17:25.912Z,12.30
2017-09-25T23:19:54.163Z,12.30
2017-09-25T23:22:21.654Z,12.20
2017-09-25T23:24:55.651Z,12.30
2017-09-25T23:27:23.899Z,12.30
2017-09-25T23:30:02.066Z,12.30
2017-09-25T23:32:29.550Z,12.30
2017-09-25T23:34:57.372Z,12.30
2017-09-25T23:37:35.102Z,12.30
2017-09-25T23:40:05.837Z,12.30
2017-09-25T23:42:33.328Z,12.30
2017-09-25T23:45:00.809Z,12.30
2017-09-25T23:47:35.650Z,12.30
2017-09-25T23:50:03.886Z,12.30
2017-09-25T23:52:31.384Z,12.20
2017-09-25T23:54:59.622Z,12.30
2017-09-25T23:57:34.522Z,12.20
